<?xml version="1.0" encoding="UTF-8" standalone="no" ?>
<gpx xmlns="http://www.topografix.com/GPX/1/1" creator="www.plotaroute.com" version="1.1"  xmlns:xsi="http://www.w3.org/2001/XMLSchema-instance" xsi:schemaLocation="http://www.topografix.com/GPX/1/1 http://www.topografix.com/GPX/1/1/gpx.xsd">
<metadata>
<desc>Route created on plotaroute.com</desc>
</metadata>
<trk>
<name>Barnard Castle Flatts Wood Waterfall Walk</name>
<trkseg>
<trkpt lat="54.54441" lon="-1.925838">
<ele>158</ele>
<time>2026-09-02T00:00:00Z</time></trkpt>
<trkpt lat="54.54441" lon="-1.925838">
<ele>158</ele>
<time>2026-09-02T00:00:00Z</time></trkpt>
<trkpt lat="54.544284" lon="-1.925893">
<ele>157</ele>
<time>2026-09-02T00:00:10Z</time></trkpt>
<trkpt lat="54.544144" lon="-1.925999">
<ele>157</ele>
<time>2026-09-02T00:00:23Z</time></trkpt>
<trkpt lat="54.544098" lon="-1.926051">
<ele>157</ele>
<time>2026-09-02T00:00:27Z</time></trkpt>
<trkpt lat="54.543969" lon="-1.926206">
<ele>155</ele>
<time>2026-09-02T00:00:40Z</time></trkpt>
<trkpt lat="54.543969" lon="-1.926206">
<ele>155</ele>
<time>2026-09-02T00:00:40Z</time></trkpt>
<trkpt lat="54.543882" lon="-1.926311">
<ele>154</ele>
<time>2026-09-02T00:00:49Z</time></trkpt>
<trkpt lat="54.543809" lon="-1.926444">
<ele>153</ele>
<time>2026-09-02T00:00:58Z</time></trkpt>
<trkpt lat="54.543792" lon="-1.926519">
<ele>152</ele>
<time>2026-09-02T00:01:01Z</time></trkpt>
<trkpt lat="54.543787" lon="-1.926752">
<ele>149</ele>
<time>2026-09-02T00:01:18Z</time></trkpt>
<trkpt lat="54.543774" lon="-1.926887">
<ele>146</ele>
<time>2026-09-02T00:01:29Z</time></trkpt>
<trkpt lat="54.543751" lon="-1.926947">
<ele>145</ele>
<time>2026-09-02T00:01:35Z</time></trkpt>
<trkpt lat="54.543765" lon="-1.926949">
<ele>144</ele>
<time>2026-09-02T00:01:37Z</time></trkpt>
<trkpt lat="54.543765" lon="-1.926949">
<ele>144</ele>
<time>2026-09-02T00:01:37Z</time></trkpt>
<trkpt lat="54.543845" lon="-1.926961">
<ele>142</ele>
<time>2026-09-02T00:01:49Z</time></trkpt>
<trkpt lat="54.5441" lon="-1.927073">
<ele>138</ele>
<time>2026-09-02T00:02:27Z</time></trkpt>
<trkpt lat="54.544254" lon="-1.927151">
<ele>138</ele>
<time>2026-09-02T00:02:51Z</time></trkpt>
<trkpt lat="54.544474" lon="-1.927454">
<ele>137</ele>
<time>2026-09-02T00:03:22Z</time></trkpt>
<trkpt lat="54.544561" lon="-1.927544">
<ele>137</ele>
<time>2026-09-02T00:03:32Z</time></trkpt>
<trkpt lat="54.544629" lon="-1.927636">
<ele>137</ele>
<time>2026-09-02T00:03:41Z</time></trkpt>
<trkpt lat="54.544629" lon="-1.927636">
<ele>137</ele>
<time>2026-09-02T00:03:41Z</time></trkpt>
<trkpt lat="54.544687" lon="-1.927714">
<ele>138</ele>
<time>2026-09-02T00:03:48Z</time></trkpt>
<trkpt lat="54.545142" lon="-1.928613">
<ele>135</ele>
<time>2026-09-02T00:04:55Z</time></trkpt>
<trkpt lat="54.545256" lon="-1.92881">
<ele>136</ele>
<time>2026-09-02T00:05:11Z</time></trkpt>
<trkpt lat="54.545391" lon="-1.929082">
<ele>135</ele>
<time>2026-09-02T00:05:31Z</time></trkpt>
<trkpt lat="54.546045" lon="-1.930241">
<ele>137</ele>
<time>2026-09-02T00:07:19Z</time></trkpt>
<trkpt lat="54.54607" lon="-1.9302">
<ele>138</ele>
<time>2026-09-02T00:07:22Z</time></trkpt>
<trkpt lat="54.546259" lon="-1.930528">
<ele>137</ele>
<time>2026-09-02T00:07:48Z</time></trkpt>
<trkpt lat="54.546434" lon="-1.93066">
<ele>137</ele>
<time>2026-09-02T00:08:07Z</time></trkpt>
<trkpt lat="54.546434" lon="-1.93066">
<ele>137</ele>
<time>2026-09-02T00:08:07Z</time></trkpt>
<trkpt lat="54.546507" lon="-1.930697">
<ele>136</ele>
<time>2026-09-02T00:08:14Z</time></trkpt>
<trkpt lat="54.546596" lon="-1.930676">
<ele>136</ele>
<time>2026-09-02T00:08:23Z</time></trkpt>
<trkpt lat="54.546777" lon="-1.930577">
<ele>137</ele>
<time>2026-09-02T00:08:48Z</time></trkpt>
<trkpt lat="54.54702" lon="-1.930288">
<ele>140</ele>
<time>2026-09-02T00:09:43Z</time></trkpt>
<trkpt lat="54.547114" lon="-1.930262">
<ele>143</ele>
<time>2026-09-02T00:10:01Z</time></trkpt>
<trkpt lat="54.547369" lon="-1.929871">
<ele>146</ele>
<time>2026-09-02T00:11:05Z</time></trkpt>
<trkpt lat="54.54748" lon="-1.929737">
<ele>147</ele>
<time>2026-09-02T00:11:22Z</time></trkpt>
<trkpt lat="54.547624" lon="-1.929501">
<ele>147</ele>
<time>2026-09-02T00:11:45Z</time></trkpt>
<trkpt lat="54.547584" lon="-1.929383">
<ele>144</ele>
<time>2026-09-02T00:11:55Z</time></trkpt>
<trkpt lat="54.547584" lon="-1.929383">
<ele>144</ele>
<time>2026-09-02T00:11:55Z</time></trkpt>
<trkpt lat="54.547624" lon="-1.929501">
<ele>147</ele>
<time>2026-09-02T00:12:04Z</time></trkpt>
<trkpt lat="54.548301" lon="-1.928886">
<ele>145</ele>
<time>2026-09-02T00:13:25Z</time></trkpt>
<trkpt lat="54.548891" lon="-1.928701">
<ele>148</ele>
<time>2026-09-02T00:14:23Z</time></trkpt>
<trkpt lat="54.549149" lon="-1.928666">
<ele>146</ele>
<time>2026-09-02T00:14:48Z</time></trkpt>
<trkpt lat="54.549528" lon="-1.92861">
<ele>148</ele>
<time>2026-09-02T00:15:28Z</time></trkpt>
<trkpt lat="54.549894" lon="-1.928645">
<ele>153</ele>
<time>2026-09-02T00:16:21Z</time></trkpt>
<trkpt lat="54.550196" lon="-1.928774">
<ele>151</ele>
<time>2026-09-02T00:17:06Z</time></trkpt>
<trkpt lat="54.550424" lon="-1.928653">
<ele>152</ele>
<time>2026-09-02T00:17:42Z</time></trkpt>
<trkpt lat="54.550439" lon="-1.928594">
<ele>152</ele>
<time>2026-09-02T00:17:48Z</time></trkpt>
<trkpt lat="54.550439" lon="-1.928594">
<ele>152</ele>
<time>2026-09-02T00:17:48Z</time></trkpt>
<trkpt lat="54.550523" lon="-1.928274">
<ele>152</ele>
<time>2026-09-02T00:18:19Z</time></trkpt>
<trkpt lat="54.550532" lon="-1.927818">
<ele>155</ele>
<time>2026-09-02T00:18:59Z</time></trkpt>
<trkpt lat="54.550503" lon="-1.927437">
<ele>158</ele>
<time>2026-09-02T00:19:28Z</time></trkpt>
<trkpt lat="54.550649" lon="-1.927159">
<ele>157</ele>
<time>2026-09-02T00:19:48Z</time></trkpt>
<trkpt lat="54.55076" lon="-1.926863">
<ele>155</ele>
<time>2026-09-02T00:20:06Z</time></trkpt>
<trkpt lat="54.550765" lon="-1.9266">
<ele>155</ele>
<time>2026-09-02T00:20:20Z</time></trkpt>
<trkpt lat="54.550768" lon="-1.926531">
<ele>155</ele>
<time>2026-09-02T00:20:24Z</time></trkpt>
<trkpt lat="54.55094" lon="-1.926203">
<ele>156</ele>
<time>2026-09-02T00:20:54Z</time></trkpt>
<trkpt lat="54.550975" lon="-1.926155">
<ele>156</ele>
<time>2026-09-02T00:21:00Z</time></trkpt>
<trkpt lat="54.551009" lon="-1.926048">
<ele>156</ele>
<time>2026-09-02T00:21:10Z</time></trkpt>
<trkpt lat="54.551027" lon="-1.925953">
<ele>156</ele>
<time>2026-09-02T00:21:18Z</time></trkpt>
<trkpt lat="54.551027" lon="-1.925953">
<ele>156</ele>
<time>2026-09-02T00:21:18Z</time></trkpt>
<trkpt lat="54.551027" lon="-1.925873">
<ele>156</ele>
<time>2026-09-02T00:21:18Z</time></trkpt>
<trkpt lat="54.551064" lon="-1.925742">
<ele>157</ele>
<time>2026-09-02T00:21:29Z</time></trkpt>
<trkpt lat="54.551051" lon="-1.925649">
<ele>156</ele>
<time>2026-09-02T00:21:37Z</time></trkpt>
<trkpt lat="54.551089" lon="-1.925487">
<ele>156</ele>
<time>2026-09-02T00:21:50Z</time></trkpt>
<trkpt lat="54.551275" lon="-1.925046">
<ele>158</ele>
<time>2026-09-02T00:22:30Z</time></trkpt>
<trkpt lat="54.551326" lon="-1.924873">
<ele>157</ele>
<time>2026-09-02T00:22:42Z</time></trkpt>
<trkpt lat="54.551411" lon="-1.924693">
<ele>156</ele>
<time>2026-09-02T00:22:55Z</time></trkpt>
<trkpt lat="54.551492" lon="-1.924623">
<ele>157</ele>
<time>2026-09-02T00:23:04Z</time></trkpt>
<trkpt lat="54.551599" lon="-1.924494">
<ele>157</ele>
<time>2026-09-02T00:23:17Z</time></trkpt>
<trkpt lat="54.551594" lon="-1.924368">
<ele>156</ele>
<time>2026-09-02T00:23:25Z</time></trkpt>
</trkseg>
</trk>
</gpx>